KRBG/RBG METAR and TAF weather

Enter ICAO airport designator
Station Type Date Time Source
KRBG METAR 2019/08/25 20:53 UTC NOAA

KRBG 252053Z AUTO 36007G17KT 10SM CLR 27/13 A3009 RMK AO2 SLP186 T02720128 58013


Station Type Date Time Source
KRBG Decoded METAR 2019/08/25 20:53 UTC NOAA

Station name not available
Aug 25, 2019 - 04:53 PM EDT / 2019.08.25 2053 UTC
Wind: from the N (360 degrees) at 8 MPH (7 KT) gusting to 20 MPH (17 KT):0
Visibility: 10 mile(s):0
Sky conditions: clear
Temperature: 81.0 F (27.2 C)
Dew Point: 55.0 F (12.8 C)
Relative Humidity: 40%
Pressure (altimeter): 30.09 in. Hg (1018 hPa)
Pressure tendency: 0.04 inches (1.3 hPa) lower than three hours ago
ob: KRBG 252053Z AUTO 36007G17KT 10SM CLR 27/13 A3009 RMK AO2 SLP186 T02720128 58013
cycle: 21

Station Type Date Time Source
KRBG TAF 2019/08/25 18:30 UTC NOAA

TAF KRBG 251728Z 2518/2618 00000KT P6SM SCT025
FM252000 01007G12KT P6SM SKC
FM260000 01015G21KT P6SM SKC
FM260400 01006KT P6SM SKC

Example: see airport list